createdAt,value
2023-01-07T00:00:30.498Z,0.14
2023-01-07T00:01:30.769Z,0.14
2023-01-07T00:02:31.378Z,0.22
2023-01-07T00:03:32.350Z,0.22
2023-01-07T00:04:32.960Z,0.22
2023-01-07T00:05:33.548Z,0.22
2023-01-07T00:06:34.223Z,0.09
2023-01-07T00:06:42.941Z,0.14
2023-01-07T00:07:43.465Z,0.14
2023-01-07T00:08:43.998Z,0.09
2023-01-07T00:09:44.911Z,0.22
2023-01-07T00:10:45.428Z,0.22
2023-01-07T00:11:45.937Z,0.14
2023-01-07T00:12:46.314Z,0.14
2023-01-07T00:13:46.969Z,0.18
2023-01-07T00:14:47.606Z,0.14
2023-01-07T00:15:48.349Z,0.22
2023-01-07T00:16:48.797Z,0.22
2023-01-07T00:17:49.305Z,0.14
2023-01-07T00:18:50.129Z,0.14
2023-01-07T00:19:50.329Z,0.09
2023-01-07T00:20:50.848Z,0.09
2023-01-07T00:21:51.134Z,0.14
2023-01-07T00:22:51.763Z,0.14
2023-01-07T00:23:52.204Z,0.14
2023-01-07T00:24:52.562Z,0.14
2023-01-07T00:25:52.975Z,0.14
2023-01-07T00:26:53.414Z,0.09
2023-01-07T00:27:54.021Z,0.09
2023-01-07T00:28:54.650Z,0.09
2023-01-07T00:29:55.060Z,0.09
2023-01-07T00:30:55.878Z,0.14
2023-01-07T00:31:56.185Z,0.14
2023-01-07T00:32:57.120Z,0.14
2023-01-07T00:33:57.641Z,0.14
2023-01-07T00:34:58.079Z,0.14
2023-01-07T00:35:58.564Z,0.18
2023-01-07T00:36:58.972Z,0.14
2023-01-07T00:37:07.626Z,0.14
2023-01-07T00:38:08.276Z,0.09
2023-01-07T00:39:08.756Z,0.09
2023-01-07T00:40:09.259Z,0.09
2023-01-07T00:41:09.674Z,0.09
2023-01-07T00:42:10.153Z,0.09
2023-01-07T00:43:10.670Z,0.09
2023-01-07T00:44:11.206Z,0.09
2023-01-07T00:45:11.608Z,0.09
2023-01-07T00:46:12.367Z,0.14
2023-01-07T00:47:12.345Z,0.18
2023-01-07T00:48:12.849Z,0.09
2023-01-07T00:49:13.361Z,0.09
2023-01-07T00:50:13.970Z,0.09
2023-01-07T00:51:14.994Z,0.09
2023-01-07T00:52:14.437Z,0.14
2023-01-07T00:53:14.888Z,0.18
2023-01-07T00:54:15.396Z,0.14
2023-01-07T00:55:15.852Z,0.09
2023-01-07T00:56:16.356Z,0.14
2023-01-07T00:57:16.696Z,0.18
2023-01-07T00:58:17.270Z,0.18
2023-01-07T00:59:18.057Z,0.09
2023-01-07T01:00:18.815Z,0.18
2023-01-07T01:01:19.679Z,0.14
2023-01-07T01:02:20.005Z,0.14
2023-01-07T01:03:20.658Z,0.14
2023-01-07T01:04:21.083Z,0.18
2023-01-07T01:05:21.514Z,0.09
2023-01-07T01:05:30.173Z,0.14
2023-01-07T01:06:30.616Z,0.14
2023-01-07T01:07:31.108Z,0.18
2023-01-07T01:08:31.635Z,0.14
2023-01-07T01:09:32.221Z,0.14
2023-01-07T01:10:32.674Z,0.14
2023-01-07T01:11:33.150Z,0.14
2023-01-07T01:12:33.576Z,0.14
2023-01-07T01:13:34.091Z,0.14
2023-01-07T01:14:34.432Z,0.09
2023-01-07T01:15:34.855Z,0.14
2023-01-07T01:16:35.548Z,0.09
2023-01-07T01:17:35.958Z,0.18
2023-01-07T01:18:36.473Z,0.18
2023-01-07T01:19:37.334Z,0.14
2023-01-07T01:20:37.922Z,0.14
2023-01-07T01:21:38.603Z,0.14
2023-01-07T01:22:39.172Z,0.18
2023-01-07T01:23:39.726Z,0.14
2023-01-07T01:24:40.325Z,0.18
2023-01-07T01:25:41.017Z,0.18
2023-01-07T01:26:41.767Z,0.14
2023-01-07T01:27:42.512Z,0.14
2023-01-07T01:28:43.287Z,0.14
2023-01-07T01:29:44.026Z,0.18
2023-01-07T01:30:44.057Z,0.14
2023-01-07T01:31:44.858Z,0.18
2023-01-07T01:32:45.531Z,0.18
2023-01-07T01:33:45.519Z,0.18
2023-01-07T01:34:46.340Z,0.18
2023-01-07T01:34:55.023Z,0.18
2023-01-07T01:35:55.693Z,0.22
2023-01-07T01:36:56.149Z,0.18
2023-01-07T01:37:56.799Z,0.22
2023-01-07T01:38:56.930Z,0.09
2023-01-07T01:39:57.453Z,0.14
2023-01-07T01:40:57.814Z,0.18
2023-01-07T01:41:58.119Z,0.14
2023-01-07T01:42:58.520Z,0.14
2023-01-07T01:43:58.598Z,0.14
2023-01-07T01:44:59.074Z,0.18
2023-01-07T01:46:00.836Z,0.14
2023-01-07T01:47:00.363Z,0.14
2023-01-07T01:48:00.766Z,0.09
2023-01-07T01:49:01.343Z,0.14
2023-01-07T01:50:01.882Z,0.09
2023-01-07T01:51:02.363Z,0.14
2023-01-07T01:52:02.862Z,0.14
2023-01-07T01:53:03.267Z,0.14
2023-01-07T01:54:03.633Z,0.14
2023-01-07T01:55:03.904Z,0.14
2023-01-07T01:56:04.271Z,0.18
2023-01-07T01:57:04.614Z,0.18
2023-01-07T01:58:05.207Z,0.14
2023-01-07T01:59:05.554Z,0.14
2023-01-07T02:00:05.936Z,0.14
2023-01-07T02:01:06.938Z,0.09
2023-01-07T02:02:07.669Z,0.18
2023-01-07T02:03:07.957Z,0.18
2023-01-07T02:04:08.413Z,0.18
2023-01-07T02:04:17.053Z,0.18
2023-01-07T02:05:17.485Z,0.18
2023-01-07T02:06:17.969Z,0.05
2023-01-07T02:07:18.375Z,0.05
2023-01-07T02:08:18.950Z,0.09
2023-01-07T02:09:19.376Z,0.05
2023-01-07T02:11:25.900Z,0.05
2023-01-07T02:12:24.105Z,0.09
2023-01-07T02:13:24.961Z,0.05
2023-01-07T02:14:25.549Z,0.05
2023-01-07T02:15:26.237Z,0.14
2023-01-07T02:16:26.909Z,0.05
2023-01-07T02:17:27.487Z,0.14
2023-01-07T02:18:28.110Z,0.14
2023-01-07T02:19:28.863Z,0.05
2023-01-07T02:20:29.388Z,0.05
2023-01-07T02:21:30.254Z,0.05
2023-01-07T02:22:30.697Z,0.05
2023-01-07T02:23:31.213Z,0.05
2023-01-07T02:24:31.952Z,0.05
2023-01-07T02:25:32.483Z,0.05
2023-01-07T02:26:33.022Z,0.05
2023-01-07T02:27:33.743Z,0.05
2023-01-07T02:28:34.283Z,0.05
2023-01-07T02:29:34.723Z,0.05
2023-01-07T02:30:35.253Z,0.05
2023-01-07T02:31:35.860Z,0.05
2023-01-07T02:32:36.501Z,0.05
2023-01-07T02:33:37.231Z,0.05
2023-01-07T02:34:37.670Z,0.05
2023-01-07T02:35:38.254Z,0.05
2023-01-07T02:36:38.887Z,0.05
2023-01-07T02:37:39.443Z,0.05
2023-01-07T02:38:40.126Z,0.05
2023-01-07T02:43:18.807Z,0.14
2023-01-07T02:44:19.366Z,0.09
2023-01-07T02:44:28.099Z,0.09
2023-01-07T02:45:28.446Z,0.09
2023-01-07T02:46:28.683Z,0.14
2023-01-07T02:47:29.082Z,0.14
2023-01-07T02:48:29.656Z,0.14
2023-01-07T02:49:30.200Z,0.14
2023-01-07T02:50:30.700Z,0.14
2023-01-07T02:51:31.384Z,0.14
2023-01-07T02:52:31.711Z,0.14
2023-01-07T02:53:32.035Z,0.14
2023-01-07T02:54:32.392Z,0.14
2023-01-07T02:55:32.848Z,0.14
2023-01-07T02:56:33.450Z,0.14
2023-01-07T02:57:34.278Z,0.14
2023-01-07T02:58:34.969Z,0.14
2023-01-07T02:59:35.626Z,0.05
2023-01-07T03:00:36.214Z,0.09
2023-01-07T03:01:36.878Z,0.09
2023-01-07T03:02:37.466Z,0.09
2023-01-07T03:03:38.086Z,0.09
2023-01-07T03:04:38.308Z,0.09
2023-01-07T03:05:39.028Z,0.09
2023-01-07T03:06:39.433Z,0.09
2023-01-07T03:07:40.112Z,0.09
2023-01-07T03:08:40.603Z,0.09
2023-01-07T03:09:41.039Z,0.09
2023-01-07T03:10:41.260Z,0.14
2023-01-07T03:11:41.420Z,0.09
2023-01-07T03:12:41.822Z,0.09
2023-01-07T03:13:42.291Z,0.09
2023-01-07T03:14:42.711Z,0.09
2023-01-07T03:14:51.879Z,0.09
2023-01-07T03:15:52.339Z,0.14
2023-01-07T03:16:52.513Z,0.09
2023-01-07T03:17:53.139Z,0.09
2023-01-07T03:18:53.886Z,0.09
2023-01-07T03:19:54.587Z,0.09
2023-01-07T03:20:54.961Z,0.09
2023-01-07T03:21:54.952Z,0.09
2023-01-07T03:22:55.674Z,0.05
2023-01-07T03:23:56.380Z,0.05
2023-01-07T03:24:57.030Z,0.09
2023-01-07T03:25:57.629Z,0.09
2023-01-07T03:26:58.087Z,0.09
2023-01-07T03:27:58.587Z,0.09
2023-01-07T03:28:59.079Z,0.09
2023-01-07T03:29:59.284Z,0.09
2023-01-07T03:31:00.107Z,0.09
2023-01-07T03:32:01.144Z,0.09
2023-01-07T03:33:01.749Z,0.09
2023-01-07T03:34:02.274Z,0.09
2023-01-07T03:35:02.389Z,0.05
2023-01-07T03:36:03.228Z,0.05
2023-01-07T03:37:04.001Z,0.05
2023-01-07T03:38:04.963Z,0.05
2023-01-07T03:39:05.589Z,0.05
2023-01-07T03:40:06.330Z,0.05
2023-01-07T03:41:07.232Z,0.05
2023-01-07T03:42:07.704Z,0.05
2023-01-07T03:43:08.387Z,0.05
2023-01-07T03:44:09.213Z,0.05
2023-01-07T03:45:09.946Z,0.05
2023-01-07T03:45:19.156Z,0.05
2023-01-07T03:46:19.518Z,0.05
2023-01-07T03:47:20.364Z,0.05
2023-01-07T03:48:20.949Z,0.05
2023-01-07T03:49:21.597Z,0.05
2023-01-07T03:50:21.831Z,0.05
2023-01-07T03:51:21.999Z,0.05
2023-01-07T03:52:22.601Z,0.05
2023-01-07T03:53:22.856Z,0.05
2023-01-07T03:54:23.392Z,0.05
2023-01-07T03:55:23.991Z,0.05
2023-01-07T03:56:24.582Z,0.05
2023-01-07T03:57:25.071Z,0.05
2023-01-07T03:58:25.670Z,0.05
2023-01-07T03:59:25.871Z,0.05
2023-01-07T04:00:26.082Z,0.05
2023-01-07T04:01:26.680Z,0.05
2023-01-07T04:02:27.009Z,0.05
2023-01-07T04:03:27.314Z,0.05
2023-01-07T04:04:27.818Z,0.05
2023-01-07T04:05:27.969Z,0.05
2023-01-07T04:06:28.092Z,0.05
2023-01-07T04:07:28.950Z,0.05
2023-01-07T04:08:29.500Z,0.05
2023-01-07T04:09:29.961Z,0.05
2023-01-07T04:10:30.340Z,0.05
2023-01-07T04:11:30.966Z,0.05
2023-01-07T04:12:31.746Z,0.05
2023-01-07T04:13:32.297Z,0.05
2023-01-07T04:14:32.879Z,0.05
2023-01-07T04:14:41.550Z,0.05
2023-01-07T04:15:41.975Z,0.05
2023-01-07T04:16:42.635Z,0.05
2023-01-07T04:17:43.010Z,0.05
2023-01-07T04:18:43.518Z,0.05
2023-01-07T04:19:44.404Z,0.05
2023-01-07T04:20:45.036Z,0.05
2023-01-07T04:21:45.715Z,0.05
2023-01-07T04:22:46.492Z,0.05
2023-01-07T04:23:47.105Z,0.05
2023-01-07T04:24:47.588Z,0.05
2023-01-07T04:25:48.236Z,0.05
2023-01-07T04:26:48.523Z,0.05
2023-01-07T04:27:48.984Z,0.05
2023-01-07T04:28:49.246Z,0.05
2023-01-07T04:29:49.687Z,0.05
2023-01-07T04:30:50.057Z,0.05
2023-01-07T04:31:50.486Z,0.05
2023-01-07T04:32:51.093Z,0.05
2023-01-07T04:33:51.348Z,0.05
2023-01-07T04:34:52.091Z,0.05
2023-01-07T04:35:52.168Z,0.05
2023-01-07T04:36:52.937Z,0.05
2023-01-07T04:37:52.939Z,0.05
2023-01-07T04:38:53.691Z,0.05
2023-01-07T04:39:54.499Z,0.05
2023-01-07T04:40:55.455Z,0.05
2023-01-07T04:41:55.890Z,0.05
2023-01-07T04:42:56.362Z,0.05
2023-01-07T04:43:56.952Z,0.05
2023-01-07T04:44:05.671Z,0.05
2023-01-07T04:45:06.275Z,0.05
2023-01-07T04:46:07.036Z,0.05
2023-01-07T04:47:07.357Z,0.05
2023-01-07T04:48:07.788Z,0.05
2023-01-07T15:43:57.137Z,146.88
2023-01-07T15:44:57.346Z,126.72
2023-01-07T15:45:57.611Z,110.88
2023-01-07T15:46:58.576Z,105.84
2023-01-07T15:47:59.191Z,104.40
2023-01-07T15:48:59.936Z,95.04
2023-01-07T15:49:59.905Z,84.60
2023-01-07T15:51:00.898Z,76.32
2023-01-07T15:52:01.523Z,67.68
2023-01-07T15:53:02.048Z,61.20
2023-01-07T15:54:02.934Z,55.80
2023-01-07T15:55:03.048Z,50.04
2023-01-07T15:56:03.671Z,44.82
2023-01-07T15:57:04.393Z,39.42
2023-01-07T15:58:05.043Z,35.10
2023-01-07T15:59:05.304Z,31.32
2023-01-07T16:00:06.024Z,28.08
2023-01-07T16:01:06.873Z,24.66
2023-01-07T16:02:07.165Z,20.97
2023-01-07T16:03:08.039Z,17.73
2023-01-07T16:04:08.270Z,15.21
2023-01-07T16:05:08.747Z,12.78
2023-01-07T16:06:09.465Z,10.80
2023-01-07T16:07:10.335Z,9.00
2023-01-07T16:07:19.812Z,8.77
2023-01-07T16:08:19.842Z,7.38
2023-01-07T16:09:20.630Z,6.26
2023-01-07T16:10:21.101Z,5.18
2023-01-07T16:11:21.337Z,4.36
2023-01-07T16:12:22.013Z,3.69
2023-01-07T16:13:22.316Z,3.11
2023-01-07T16:14:22.417Z,2.57
2023-01-07T16:15:22.553Z,2.16
2023-01-07T16:16:23.605Z,1.80
2023-01-07T16:17:24.435Z,1.53
2023-01-07T16:18:24.476Z,1.30
2023-01-07T16:19:24.675Z,1.12
2023-01-07T16:20:25.539Z,0.99
2023-01-07T16:21:25.634Z,0.86
2023-01-07T16:22:26.162Z,0.72
2023-01-07T16:23:26.773Z,0.63
2023-01-07T16:24:27.104Z,0.54
2023-01-07T16:25:27.413Z,0.45
2023-01-07T16:26:27.439Z,0.36
2023-01-07T16:27:27.923Z,0.31
2023-01-07T16:28:28.858Z,0.27
2023-01-07T16:29:29.252Z,0.27
2023-01-07T16:30:29.547Z,0.22
2023-01-07T16:31:29.782Z,0.14
2023-01-07T16:32:30.113Z,0.14
2023-01-07T16:33:31.048Z,0.14
2023-01-07T16:34:31.469Z,0.14
2023-01-07T16:35:32.064Z,0.09
2023-01-07T16:36:32.701Z,0.09
2023-01-07T16:36:41.890Z,0.09
2023-01-07T16:37:42.193Z,0.09
2023-01-07T16:38:43.124Z,0.05
2023-01-07T16:39:43.163Z,0.05
2023-01-07T16:40:43.207Z,0.05
2023-01-07T16:41:43.903Z,0.05
2023-01-07T16:42:43.974Z,0.05
2023-01-07T16:43:44.913Z,0.05
2023-01-07T16:44:46.003Z,0.05
2023-01-07T16:45:46.158Z,0.05
2023-01-07T16:46:46.302Z,0.05
2023-01-07T16:47:46.350Z,0.05
2023-01-07T16:48:47.301Z,0.05
2023-01-07T16:49:48.306Z,0.00
2023-01-07T16:50:49.040Z,0.00
2023-01-07T16:51:49.130Z,0.00
2023-01-07T16:52:49.209Z,0.00
2023-01-07T16:53:50.122Z,0.00
2023-01-07T16:54:51.570Z,0.00
2023-01-07T16:55:50.820Z,0.00
2023-01-07T16:56:51.671Z,0.00
2023-01-07T16:57:52.623Z,0.00
2023-01-07T16:58:52.826Z,0.00
2023-01-07T16:59:54.185Z,0.00
2023-01-07T17:00:54.018Z,0.00
2023-01-07T17:01:54.818Z,0.00
2023-01-07T17:02:54.775Z,0.00
2023-01-07T17:03:55.273Z,0.00
2023-01-07T17:04:56.118Z,0.00
2023-01-07T17:05:56.884Z,0.00
2023-01-07T17:06:57.681Z,0.00
2023-01-07T17:07:58.290Z,0.00
2023-01-07T17:08:06.929Z,0.00
2023-01-07T17:09:07.368Z,0.00
2023-01-07T17:10:08.157Z,0.00
2023-01-07T17:11:08.755Z,0.00
2023-01-07T17:12:09.517Z,0.00
2023-01-07T17:13:10.490Z,0.00
2023-01-07T17:14:11.240Z,0.00
2023-01-07T17:15:12.089Z,0.00
2023-01-07T17:16:12.877Z,0.00
2023-01-07T17:17:13.735Z,0.00
2023-01-07T17:18:14.518Z,0.00
2023-01-07T17:19:15.357Z,0.00
2023-01-07T17:20:15.963Z,0.00
2023-01-07T17:21:16.766Z,0.00
2023-01-07T17:22:17.404Z,0.00
2023-01-07T17:23:18.213Z,0.00
2023-01-07T17:24:18.855Z,0.00
2023-01-07T17:25:19.671Z,0.00
2023-01-07T17:26:19.721Z,0.00
2023-01-07T17:27:20.292Z,0.00
2023-01-07T17:28:20.873Z,0.00
2023-01-07T17:29:21.203Z,0.00
2023-01-07T17:30:21.986Z,0.00
2023-01-07T17:31:21.942Z,0.00
2023-01-07T17:32:22.559Z,0.00
2023-01-07T17:33:23.892Z,0.05
2023-01-07T17:34:25.186Z,0.05
2023-01-07T17:35:24.159Z,0.05
2023-01-07T17:36:25.789Z,0.05
2023-01-07T17:37:25.421Z,0.05
2023-01-07T17:38:26.055Z,0.00
2023-01-07T17:38:36.731Z,0.00
2023-01-07T17:39:37.331Z,0.00
2023-01-07T17:40:37.679Z,0.00
2023-01-07T17:41:38.560Z,0.00
2023-01-07T17:42:39.193Z,0.00
2023-01-07T17:43:39.799Z,0.00
2023-01-07T17:44:40.608Z,0.00
2023-01-07T17:45:41.532Z,0.00
2023-01-07T17:46:41.719Z,0.00
2023-01-07T17:47:42.377Z,0.00
2023-01-07T17:48:43.099Z,0.00
2023-01-07T17:49:43.783Z,0.00
2023-01-07T17:50:44.391Z,0.00
2023-01-07T17:51:44.848Z,0.05
2023-01-07T17:52:45.370Z,0.05
2023-01-07T17:53:45.380Z,0.05
2023-01-07T17:54:46.109Z,0.05
2023-01-07T17:55:46.722Z,0.05
2023-01-07T17:56:46.951Z,0.05
2023-01-07T17:57:47.797Z,0.05
2023-01-07T17:58:47.856Z,0.05
2023-01-07T17:59:48.470Z,0.05
2023-01-07T18:00:49.077Z,0.05
2023-01-07T18:01:49.821Z,0.05
2023-01-07T18:02:50.337Z,0.05
2023-01-07T18:03:50.752Z,0.05
2023-01-07T18:04:51.698Z,0.05
2023-01-07T18:05:52.263Z,0.05
2023-01-07T18:06:53.079Z,0.05
2023-01-07T18:07:54.012Z,0.05
2023-01-07T18:08:54.333Z,0.05
2023-01-07T18:09:03.467Z,0.05
2023-01-07T18:10:04.057Z,0.05
2023-01-07T18:11:04.123Z,0.05
2023-01-07T18:12:04.566Z,0.05
2023-01-07T18:13:04.659Z,0.05
2023-01-07T18:14:05.047Z,0.05
2023-01-07T18:15:05.660Z,0.05
2023-01-07T18:16:06.798Z,0.05
2023-01-07T18:17:07.313Z,0.05
2023-01-07T18:18:08.075Z,0.05
2023-01-07T18:19:08.563Z,0.05
2023-01-07T18:20:09.292Z,0.05
2023-01-07T18:21:09.971Z,0.05
2023-01-07T18:22:10.456Z,0.05
2023-01-07T18:23:11.070Z,0.05
2023-01-07T18:24:11.691Z,0.05
2023-01-07T18:25:12.144Z,0.05
2023-01-07T18:26:12.794Z,0.05
2023-01-07T18:27:13.766Z,0.05
2023-01-07T18:28:14.634Z,0.05
2023-01-07T18:29:15.286Z,0.05
2023-01-07T18:30:15.905Z,0.05
2023-01-07T18:31:16.934Z,0.05
2023-01-07T18:32:17.231Z,0.05
2023-01-07T18:33:17.699Z,0.05
2023-01-07T18:34:18.271Z,0.05
2023-01-07T18:35:18.992Z,0.05
2023-01-07T18:36:19.295Z,0.05
2023-01-07T18:37:20.000Z,0.05
2023-01-07T18:38:20.855Z,0.05
2023-01-07T18:39:21.214Z,0.05
2023-01-07T18:40:21.495Z,0.05
2023-01-07T18:40:31.175Z,0.05
2023-01-07T18:41:31.463Z,0.05
2023-01-07T18:42:33.050Z,0.05
2023-01-07T18:43:32.622Z,0.05
2023-01-07T18:44:33.285Z,0.05
2023-01-07T18:45:34.134Z,0.05
2023-01-07T18:46:34.704Z,0.05
2023-01-07T18:47:35.269Z,0.05
2023-01-07T18:48:35.787Z,0.05
2023-01-07T18:49:36.318Z,0.05
2023-01-07T18:50:37.075Z,0.05
2023-01-07T18:51:37.740Z,0.05
2023-01-07T18:52:38.270Z,0.05
2023-01-07T18:53:39.199Z,0.05
2023-01-07T18:54:39.846Z,0.05
2023-01-07T18:55:40.631Z,0.05
2023-01-07T18:56:41.216Z,0.05
2023-01-07T18:57:41.715Z,0.05
2023-01-07T18:58:44.166Z,0.05
2023-01-07T18:59:42.480Z,0.05
2023-01-07T19:00:42.830Z,0.05
2023-01-07T19:01:43.625Z,0.05
2023-01-07T19:02:43.913Z,0.05
2023-01-07T19:03:44.708Z,0.05
2023-01-07T19:04:45.449Z,0.05
2023-01-07T19:05:46.015Z,0.05
2023-01-07T19:06:46.311Z,0.05
2023-01-07T19:07:46.884Z,0.05
2023-01-07T19:08:47.472Z,0.05
2023-01-07T19:09:48.237Z,0.05
2023-01-07T19:09:57.407Z,0.05
2023-01-07T19:10:59.779Z,0.05
2023-01-07T19:11:58.062Z,0.05
2023-01-07T19:12:59.073Z,0.05
2023-01-07T19:13:59.653Z,0.05
2023-01-07T19:15:00.621Z,0.05
2023-01-07T19:16:01.223Z,0.05
2023-01-07T19:17:01.461Z,0.05
2023-01-07T19:18:01.962Z,0.05
2023-01-07T19:19:02.809Z,0.05
2023-01-07T19:20:03.633Z,0.05
2023-01-07T19:21:04.532Z,0.05
2023-01-07T19:22:05.248Z,0.05
2023-01-07T19:23:06.182Z,0.05
2023-01-07T19:24:07.139Z,0.05
2023-01-07T19:25:07.990Z,0.05
2023-01-07T19:26:08.849Z,0.05
2023-01-07T19:27:09.285Z,0.05
2023-01-07T19:28:09.550Z,0.05
2023-01-07T19:29:09.790Z,0.05
2023-01-07T19:30:09.775Z,0.05
2023-01-07T19:31:10.086Z,0.05
2023-01-07T19:32:12.128Z,0.05
2023-01-07T19:33:11.429Z,0.05
2023-01-07T19:34:12.187Z,0.05
2023-01-07T19:35:12.639Z,0.05
2023-01-07T19:36:12.703Z,0.05
2023-01-07T19:37:13.119Z,0.05
2023-01-07T19:38:13.421Z,0.05
2023-01-07T19:39:14.375Z,0.05
2023-01-07T19:39:24.121Z,0.05
2023-01-07T19:40:24.613Z,0.05
2023-01-07T19:41:24.963Z,0.05
2023-01-07T19:42:26.689Z,0.05
2023-01-07T19:43:25.760Z,0.05
2023-01-07T19:44:26.598Z,0.05
2023-01-07T19:45:27.008Z,0.05
2023-01-07T19:46:27.632Z,0.05
2023-01-07T19:47:28.095Z,0.05
2023-01-07T19:48:28.749Z,0.05
2023-01-07T19:49:29.669Z,0.05
2023-01-07T19:50:29.730Z,0.05
2023-01-07T19:51:30.211Z,0.05
2023-01-07T19:52:31.062Z,0.05
2023-01-07T19:53:31.897Z,0.05
2023-01-07T19:54:32.728Z,0.05
2023-01-07T19:55:33.465Z,0.05
2023-01-07T19:56:33.941Z,0.05
2023-01-07T19:57:34.539Z,0.05
2023-01-07T19:58:34.747Z,0.05
2023-01-07T19:59:34.748Z,0.05
2023-01-07T20:00:35.422Z,0.05
2023-01-07T20:01:35.795Z,0.05
2023-01-07T20:02:35.891Z,0.05
2023-01-07T20:03:36.427Z,0.05
2023-01-07T20:04:36.770Z,0.05
2023-01-07T20:05:37.595Z,0.05
2023-01-07T20:06:37.735Z,0.05
2023-01-07T20:07:38.486Z,0.05
2023-01-07T20:08:39.016Z,0.05
2023-01-07T20:08:53.308Z,0.05
2023-01-07T20:09:53.866Z,0.05
2023-01-07T20:10:54.800Z,0.05
2023-01-07T20:11:55.019Z,0.05
2023-01-07T20:12:55.876Z,0.05
2023-01-07T20:13:56.031Z,0.05
2023-01-07T20:14:56.076Z,0.05
2023-01-07T20:15:56.703Z,0.05
2023-01-07T20:16:57.747Z,0.05
2023-01-07T20:17:58.446Z,0.05
2023-01-07T20:18:58.869Z,0.05
2023-01-07T20:19:58.897Z,0.05
2023-01-07T20:20:59.258Z,0.05
2023-01-07T20:22:00.033Z,0.05
2023-01-07T20:23:00.937Z,0.05
2023-01-07T20:24:01.772Z,0.05
2023-01-07T20:25:01.756Z,0.05
2023-01-07T20:26:02.418Z,0.05
2023-01-07T20:27:03.317Z,0.05
2023-01-07T20:28:03.973Z,0.05
2023-01-07T20:29:04.337Z,0.05
2023-01-07T20:30:05.137Z,0.05
2023-01-07T20:31:06.040Z,0.05
2023-01-07T20:32:06.452Z,0.05
2023-01-07T20:33:07.336Z,0.05
2023-01-07T20:34:07.888Z,0.05
2023-01-07T20:35:08.677Z,0.05
2023-01-07T20:36:08.642Z,0.05
2023-01-07T20:37:09.446Z,0.05
2023-01-07T20:38:09.914Z,0.05
2023-01-07T20:39:09.975Z,0.05
2023-01-07T20:39:20.725Z,0.05
2023-01-07T20:40:20.893Z,0.05
2023-01-07T20:41:21.207Z,0.05
2023-01-07T20:42:21.981Z,0.05
2023-01-07T20:43:22.310Z,0.05
2023-01-07T20:44:22.505Z,0.05
2023-01-07T20:45:22.972Z,0.05
2023-01-07T20:46:23.796Z,0.05
2023-01-07T20:47:24.556Z,0.05
2023-01-07T20:48:24.735Z,0.05
2023-01-07T20:49:25.449Z,0.05
2023-01-07T20:50:26.078Z,0.05
2023-01-07T20:51:26.107Z,0.05
2023-01-07T20:52:26.206Z,0.05
2023-01-07T20:53:27.079Z,0.05
2023-01-07T20:54:27.723Z,0.05
2023-01-07T20:55:27.880Z,0.05
2023-01-07T20:56:28.211Z,0.05
2023-01-07T20:57:28.914Z,0.05
2023-01-07T20:58:29.751Z,0.05
2023-01-07T20:59:30.551Z,0.05
2023-01-07T21:00:31.202Z,0.05
2023-01-07T21:01:32.215Z,0.05
2023-01-07T21:02:33.046Z,0.05
2023-01-07T21:03:33.676Z,0.05
2023-01-07T21:04:33.907Z,0.05
2023-01-07T21:05:34.600Z,0.05
2023-01-07T21:06:35.460Z,0.05
2023-01-07T21:07:35.509Z,0.05
2023-01-07T21:07:44.656Z,0.05
2023-01-07T21:09:35.936Z,0.05
2023-01-07T21:10:35.544Z,0.05
2023-01-07T21:11:35.709Z,0.05
2023-01-07T21:13:32.195Z,0.05
2023-01-07T21:14:22.228Z,0.05
2023-01-07T21:14:36.781Z,0.05
2023-01-07T21:15:38.927Z,0.05
2023-01-07T21:16:39.739Z,0.05
2023-01-07T21:17:37.948Z,0.05
2023-01-07T21:18:38.351Z,0.05
2023-01-07T21:19:46.322Z,0.05
2023-01-07T21:20:41.339Z,0.05
2023-01-07T21:21:39.645Z,0.05
2023-01-07T21:22:42.510Z,0.05
2023-01-07T21:23:40.854Z,0.05
2023-01-07T21:24:41.722Z,0.05
2023-01-07T21:25:42.277Z,0.05
2023-01-07T21:26:50.582Z,0.05
2023-01-07T21:27:43.623Z,0.05
2023-01-07T21:28:44.671Z,0.05
2023-01-07T21:29:44.339Z,0.05
2023-01-07T21:30:44.500Z,0.05
2023-01-07T21:31:45.296Z,0.05
2023-01-07T21:32:47.593Z,0.05
2023-01-07T21:33:45.672Z,0.05
2023-01-07T21:34:46.043Z,0.05
2023-01-07T21:35:48.467Z,0.05
2023-01-07T21:36:49.780Z,0.05
2023-01-07T21:37:53.068Z,0.05
2023-01-07T21:38:47.512Z,0.05
2023-01-07T21:39:02.582Z,0.05
2023-01-07T21:40:02.250Z,0.05
2023-01-07T21:41:02.907Z,0.05
2023-01-07T21:42:03.043Z,0.05
2023-01-07T21:43:03.182Z,0.05
2023-01-07T21:44:03.498Z,0.05
2023-01-07T21:45:06.317Z,0.05
2023-01-07T21:46:04.778Z,0.05
2023-01-07T21:47:07.591Z,0.05
2023-01-07T21:48:05.676Z,0.05
2023-01-07T21:49:08.542Z,0.05
2023-01-07T21:52:25.769Z,0.05
2023-01-07T21:53:26.117Z,0.05
2023-01-07T21:54:26.780Z,0.05
2023-01-07T21:55:29.539Z,0.05
2023-01-07T21:56:27.763Z,0.05
2023-01-07T21:57:28.688Z,0.05
2023-01-07T21:58:31.406Z,0.05
2023-01-07T21:59:29.862Z,0.05
2023-01-07T22:00:33.075Z,0.05
2023-01-07T22:01:31.005Z,0.05
2023-01-07T22:02:31.566Z,0.05
2023-01-07T22:03:31.959Z,0.05
2023-01-07T22:04:32.300Z,0.05
2023-01-07T22:05:32.974Z,0.05
2023-01-07T22:06:41.458Z,0.05
2023-01-07T22:07:34.501Z,0.05
2023-01-07T22:08:34.776Z,0.05
2023-01-07T22:09:35.323Z,0.05
2023-01-07T22:11:04.874Z,0.05
2023-01-07T22:12:02.977Z,0.05
2023-01-07T22:13:03.178Z,0.05
2023-01-07T22:14:04.163Z,0.05
2023-01-07T22:15:04.353Z,0.05
2023-01-07T22:16:04.505Z,0.05
2023-01-07T22:17:05.169Z,0.05
2023-01-07T22:18:05.226Z,0.05
2023-01-07T22:19:06.036Z,0.05
2023-01-07T22:20:06.373Z,0.05
2023-01-07T22:21:06.752Z,0.05
2023-01-07T22:22:07.512Z,0.05
2023-01-07T22:23:07.630Z,0.05
2023-01-07T22:24:08.545Z,0.05
2023-01-07T22:25:09.437Z,0.05
2023-01-07T22:26:12.167Z,0.05
2023-01-07T22:27:09.993Z,0.05
2023-01-07T22:28:10.176Z,0.05
2023-01-07T22:29:10.830Z,0.05
2023-01-07T22:30:11.137Z,0.05
2023-01-07T22:31:11.322Z,0.05
2023-01-07T22:32:13.558Z,0.05
2023-01-07T22:33:11.918Z,0.05
2023-01-07T22:34:14.629Z,0.05
2023-01-07T22:35:19.690Z,0.05
2023-01-07T22:36:12.754Z,0.05
2023-01-07T22:37:15.343Z,0.05
2023-01-07T22:38:13.453Z,0.05
2023-01-07T22:38:23.144Z,0.05
2023-01-07T22:39:23.600Z,0.05
2023-01-07T22:40:23.696Z,0.05
2023-01-07T22:41:31.797Z,0.05
2023-01-07T22:42:25.237Z,0.05
2023-01-07T22:43:25.901Z,0.05
2023-01-07T22:44:26.125Z,0.05
2023-01-07T22:45:26.888Z,0.05
2023-01-07T22:46:27.659Z,0.05
2023-01-07T22:47:28.374Z,0.05
2023-01-07T22:48:29.287Z,0.05
2023-01-07T22:49:29.976Z,0.05
2023-01-07T22:50:32.747Z,0.05
2023-01-07T22:51:30.825Z,0.05
2023-01-07T22:52:33.751Z,0.05
2023-01-07T22:53:39.250Z,0.05
2023-01-07T22:54:34.892Z,0.05
2023-01-07T22:55:33.615Z,0.05
2023-01-07T22:56:35.945Z,0.05
2023-01-07T22:57:34.699Z,0.05
2023-01-07T22:58:35.398Z,0.05
2023-01-07T22:59:36.035Z,0.05
2023-01-07T23:00:36.296Z,0.05
2023-01-07T23:01:38.329Z,0.05
2023-01-07T23:02:38.155Z,0.05
2023-01-07T23:03:41.084Z,0.05
2023-01-07T23:04:49.719Z,0.05
2023-01-07T23:05:49.773Z,0.05
2023-01-07T23:06:50.215Z,0.05
2023-01-07T23:07:51.072Z,0.05
2023-01-07T23:08:51.596Z,0.05
2023-01-07T23:09:52.832Z,0.05
2023-01-07T23:10:52.903Z,0.05
2023-01-07T23:11:53.628Z,0.05
2023-01-07T23:12:54.420Z,0.05
2023-01-07T23:13:54.832Z,0.05
2023-01-07T23:14:58.102Z,0.05
2023-01-07T23:15:55.222Z,0.05
2023-01-07T23:17:02.889Z,0.05
2023-01-07T23:18:03.345Z,0.05
2023-01-07T23:18:56.496Z,0.05
2023-01-07T23:19:57.096Z,0.05
2023-01-07T23:24:27.380Z,0.05
2023-01-07T23:25:20.673Z,0.05
2023-01-07T23:26:19.853Z,0.05
2023-01-07T23:27:20.093Z,0.05
2023-01-07T23:28:20.933Z,0.05
2023-01-07T23:29:37.877Z,0.05
2023-01-07T23:30:31.293Z,0.05
2023-01-07T23:31:32.030Z,0.05
2023-01-07T23:32:32.214Z,0.00
2023-01-07T23:33:40.052Z,0.05
2023-01-07T23:34:36.337Z,0.05
2023-01-07T23:35:34.254Z,0.05
2023-01-07T23:36:34.562Z,0.05
2023-01-07T23:36:49.073Z,0.05
2023-01-07T23:37:46.978Z,0.05
2023-01-07T23:38:47.557Z,0.05
2023-01-07T23:39:48.444Z,0.05
2023-01-07T23:40:49.022Z,0.05
2023-01-07T23:41:49.794Z,0.05
2023-01-07T23:42:50.111Z,0.05
2023-01-07T23:43:50.326Z,0.05
2023-01-07T23:44:51.061Z,0.05
2023-01-07T23:45:51.159Z,0.05
2023-01-07T23:46:51.916Z,0.05
2023-01-07T23:47:52.206Z,0.05
2023-01-07T23:48:52.336Z,0.05
2023-01-07T23:49:53.303Z,0.05
2023-01-07T23:50:54.169Z,0.05
2023-01-07T23:51:54.880Z,0.05
2023-01-07T23:52:55.488Z,0.05
2023-01-07T23:53:56.108Z,0.05
2023-01-07T23:54:57.167Z,0.05
2023-01-07T23:55:57.847Z,0.05
2023-01-07T23:56:58.622Z,0.05
2023-01-07T23:57:59.356Z,0.05
2023-01-07T23:59:02.850Z,0.05
